sensor_id;sensor_type;location;lat;lon;timestamp;pressure;altitude;pressure_sealevel;temperature;humidity
6096;BME280;25081;42.698;23.298;2023-02-15T00:01:42;96498.31;;;1.15;79.94
6096;BME280;25081;42.698;23.298;2023-02-15T00:04:11;96493.94;;;1.10;80.30
6096;BME280;25081;42.698;23.298;2023-02-15T00:06:40;96503.61;;;1.09;80.55
6096;BME280;25081;42.698;23.298;2023-02-15T00:09:09;96510.37;;;1.18;80.48
6096;BME280;25081;42.698;23.298;2023-02-15T00:11:38;96507.27;;;1.18;80.39
6096;BME280;25081;42.698;23.298;2023-02-15T00:14:11;96512.53;;;1.12;80.62
6096;BME280;25081;42.698;23.298;2023-02-15T00:16:40;96511.58;;;1.13;80.70
6096;BME280;25081;42.698;23.298;2023-02-15T00:19:09;96521.22;;;1.19;80.53
6096;BME280;25081;42.698;23.298;2023-02-15T00:21:38;96513.85;;;1.12;80.58
6096;BME280;25081;42.698;23.298;2023-02-15T00:24:07;96524.63;;;1.09;80.75
6096;BME280;25081;42.698;23.298;2023-02-15T00:26:35;96514.91;;;0.95;81.26
6096;BME280;25081;42.698;23.298;2023-02-15T00:29:06;96514.91;;;0.95;81.60
6096;BME280;25081;42.698;23.298;2023-02-15T00:31:35;96520.41;;;0.97;81.60
6096;BME280;25081;42.698;23.298;2023-02-15T00:34:04;96517.87;;;0.96;81.67
6096;BME280;25081;42.698;23.298;2023-02-15T00:36:32;96516.34;;;0.99;81.62
6096;BME280;25081;42.698;23.298;2023-02-15T00:39:01;96519.09;;;0.97;81.62
6096;BME280;25081;42.698;23.298;2023-02-15T00:41:30;96523.61;;;0.95;81.88
6096;BME280;25081;42.698;23.298;2023-02-15T00:43:59;96519.66;;;1.01;81.65
6096;BME280;25081;42.698;23.298;2023-02-15T00:46:27;96519.79;;;0.99;81.57
6096;BME280;25081;42.698;23.298;2023-02-15T00:48:56;96520.48;;;1.01;81.54
6096;BME280;25081;42.698;23.298;2023-02-15T00:51:26;96517.78;;;0.97;81.55
6096;BME280;25081;42.698;23.298;2023-02-15T00:53:55;96487.83;;;0.73;81.84
6096;BME280;25081;42.698;23.298;2023-02-15T00:56:23;96518.02;;;0.94;81.79
6096;BME280;25081;42.698;23.298;2023-02-15T00:58:52;96517.93;;;0.90;81.95
6096;BME280;25081;42.698;23.298;2023-02-15T01:01:21;96518.61;;;0.98;81.63
6096;BME280;25081;42.698;23.298;2023-02-15T01:03:50;96520.97;;;1.01;81.35
6096;BME280;25081;42.698;23.298;2023-02-15T01:06:19;96519.92;;;0.98;81.33
6096;BME280;25081;42.698;23.298;2023-02-15T01:08:47;96518.55;;;0.88;81.56
6096;BME280;25081;42.698;23.298;2023-02-15T01:11:20;96518.08;;;0.83;81.92
6096;BME280;25081;42.698;23.298;2023-02-15T01:13:49;96508.76;;;0.84;81.89
6096;BME280;25081;42.698;23.298;2023-02-15T01:16:18;96513.94;;;0.75;82.22
6096;BME280;25081;42.698;23.298;2023-02-15T01:18:46;96508.45;;;0.78;82.21
6096;BME280;25081;42.698;23.298;2023-02-15T01:21:16;96503.09;;;0.74;82.16
6096;BME280;25081;42.698;23.298;2023-02-15T01:23:44;96506.19;;;0.79;82.24
6096;BME280;25081;42.698;23.298;2023-02-15T01:26:13;96505.92;;;0.82;81.89
6096;BME280;25081;42.698;23.298;2023-02-15T01:28:42;96505.00;;;0.77;81.94
6096;BME280;25081;42.698;23.298;2023-02-15T01:31:11;96499.16;;;0.74;82.22
6096;BME280;25081;42.698;23.298;2023-02-15T01:33:39;96504.63;;;0.76;82.19
6096;BME280;25081;42.698;23.298;2023-02-15T01:36:08;96508.94;;;0.77;82.22
6096;BME280;25081;42.698;23.298;2023-02-15T01:38:37;96504.75;;;0.75;82.31
6096;BME280;25081;42.698;23.298;2023-02-15T01:41:08;96497.14;;;0.72;82.33
6096;BME280;25081;42.698;23.298;2023-02-15T01:43:49;96495.22;;;0.74;82.34
6096;BME280;25081;42.698;23.298;2023-02-15T01:46:17;96493.89;;;0.79;82.28
6096;BME280;25081;42.698;23.298;2023-02-15T01:48:46;96492.31;;;0.82;82.18
6096;BME280;25081;42.698;23.298;2023-02-15T01:51:15;96493.41;;;0.80;82.11
6096;BME280;25081;42.698;23.298;2023-02-15T01:53:45;96487.02;;;0.67;82.67
6096;BME280;25081;42.698;23.298;2023-02-15T01:56:13;96487.13;;;0.71;82.69
6096;BME280;25081;42.698;23.298;2023-02-15T01:58:42;96478.08;;;0.70;82.89
6096;BME280;25081;42.698;23.298;2023-02-15T02:01:10;96480.00;;;0.68;83.15
6096;BME280;25081;42.698;23.298;2023-02-15T02:03:45;96486.43;;;0.69;83.15
6096;BME280;25081;42.698;23.298;2023-02-15T02:06:11;96478.80;;;0.66;83.16
6096;BME280;25081;42.698;23.298;2023-02-15T02:08:40;96479.54;;;0.63;83.24
6096;BME280;25081;42.698;23.298;2023-02-15T02:11:12;96475.47;;;0.64;83.30
6096;BME280;25081;42.698;23.298;2023-02-15T02:13:41;96478.01;;;0.60;83.34
6096;BME280;25081;42.698;23.298;2023-02-15T02:16:13;96483.47;;;0.63;83.61
6096;BME280;25081;42.698;23.298;2023-02-15T02:18:44;96481.68;;;0.63;83.37
6096;BME280;25081;42.698;23.298;2023-02-15T02:21:41;96480.70;;;0.70;83.29
6096;BME280;25081;42.698;23.298;2023-02-15T02:24:36;96490.37;;;0.69;82.92
6096;BME280;25081;42.698;23.298;2023-02-15T02:27:23;96487.87;;;0.68;83.11
6096;BME280;25081;42.698;23.298;2023-02-15T02:30:13;96493.42;;;0.74;83.03
6096;BME280;25081;42.698;23.298;2023-02-15T02:33:10;96497.23;;;0.76;83.04
6096;BME280;25081;42.698;23.298;2023-02-15T02:35:40;96494.50;;;0.77;83.11
6096;BME280;25081;42.698;23.298;2023-02-15T02:38:10;96498.79;;;0.78;83.14
6096;BME280;25081;42.698;23.298;2023-02-15T02:40:41;96494.94;;;0.82;83.05
6096;BME280;25081;42.698;23.298;2023-02-15T02:43:10;96500.32;;;0.81;83.07
6096;BME280;25081;42.698;23.298;2023-02-15T02:45:39;96497.55;;;0.88;83.03
6096;BME280;25081;42.698;23.298;2023-02-15T02:48:09;96500.95;;;0.94;82.77
6096;BME280;25081;42.698;23.298;2023-02-15T02:50:38;96494.30;;;0.90;82.78
6096;BME280;25081;42.698;23.298;2023-02-15T02:53:08;96497.77;;;0.91;82.97
6096;BME280;25081;42.698;23.298;2023-02-15T02:55:38;96495.00;;;0.92;82.86
6096;BME280;25081;42.698;23.298;2023-02-15T02:58:07;96495.81;;;0.98;82.63
6096;BME280;25081;42.698;23.298;2023-02-15T03:00:36;96503.69;;;0.98;82.76
6096;BME280;25081;42.698;23.298;2023-02-15T03:03:05;96510.45;;;1.06;82.73
6096;BME280;25081;42.698;23.298;2023-02-15T03:05:33;96507.88;;;1.16;82.69
6096;BME280;25081;42.698;23.298;2023-02-15T03:08:02;96508.87;;;1.25;82.14
6096;BME280;25081;42.698;23.298;2023-02-15T03:10:30;96510.02;;;1.32;81.90
6096;BME280;25081;42.698;23.298;2023-02-15T03:12:59;96510.84;;;1.32;81.85
6096;BME280;25081;42.698;23.298;2023-02-15T03:15:30;96514.28;;;1.38;81.77
6096;BME280;25081;42.698;23.298;2023-02-15T03:17:59;96514.77;;;1.38;81.61
6096;BME280;25081;42.698;23.298;2023-02-15T03:20:28;96516.59;;;1.32;81.61
6096;BME280;25081;42.698;23.298;2023-02-15T03:22:56;96510.13;;;1.36;82.14
6096;BME280;25081;42.698;23.298;2023-02-15T03:25:26;96514.62;;;1.39;81.92
6096;BME280;25081;42.698;23.298;2023-02-15T03:27:55;96504.05;;;1.35;82.11
6096;BME280;25081;42.698;23.298;2023-02-15T03:30:23;96515.27;;;1.32;82.50
6096;BME280;25081;42.698;23.298;2023-02-15T03:32:51;96512.38;;;1.35;82.42
6096;BME280;25081;42.698;23.298;2023-02-15T03:35:22;96516.56;;;1.37;82.46
6096;BME280;25081;42.698;23.298;2023-02-15T03:37:50;96518.05;;;1.46;82.49
6096;BME280;25081;42.698;23.298;2023-02-15T03:40:19;96519.13;;;1.43;82.39
6096;BME280;25081;42.698;23.298;2023-02-15T03:43:08;96511.56;;;1.50;82.23
6096;BME280;25081;42.698;23.298;2023-02-15T03:45:34;96510.41;;;1.42;82.52
6096;BME280;25081;42.698;23.298;2023-02-15T03:48:03;96513.84;;;1.49;82.51
6096;BME280;25081;42.698;23.298;2023-02-15T03:50:32;96512.39;;;1.50;82.50
6096;BME280;25081;42.698;23.298;2023-02-15T03:53:18;96506.14;;;1.57;82.19
6096;BME280;25081;42.698;23.298;2023-02-15T03:55:48;96509.36;;;1.70;81.87
6096;BME280;25081;42.698;23.298;2023-02-15T03:58:17;96508.25;;;1.72;81.45
6096;BME280;25081;42.698;23.298;2023-02-15T04:01:05;96506.52;;;1.67;81.58
6096;BME280;25081;42.698;23.298;2023-02-15T04:03:53;96513.44;;;1.68;81.58
6096;BME280;25081;42.698;23.298;2023-02-15T04:06:20;96510.98;;;1.77;81.40
6096;BME280;25081;42.698;23.298;2023-02-15T04:08:49;96511.61;;;1.75;81.33
6096;BME280;25081;42.698;23.298;2023-02-15T04:11:35;96515.55;;;1.75;81.43
6096;BME280;25081;42.698;23.298;2023-02-15T04:14:04;96524.82;;;1.79;81.12
6096;BME280;25081;42.698;23.298;2023-02-15T04:16:33;96521.50;;;1.77;81.10
6096;BME280;25081;42.698;23.298;2023-02-15T04:19:02;96526.76;;;1.77;81.20
6096;BME280;25081;42.698;23.298;2023-02-15T04:21:49;96523.20;;;1.87;81.06
6096;BME280;25081;42.698;23.298;2023-02-15T04:24:35;96530.25;;;1.87;81.09
6096;BME280;25081;42.698;23.298;2023-02-15T04:27:22;96532.40;;;1.87;80.95
6096;BME280;25081;42.698;23.298;2023-02-15T04:29:50;96536.48;;;1.86;81.12
6096;BME280;25081;42.698;23.298;2023-02-15T04:32:19;96543.91;;;1.96;80.98
6096;BME280;25081;42.698;23.298;2023-02-15T04:34:48;96546.20;;;1.95;81.13
6096;BME280;25081;42.698;23.298;2023-02-15T04:37:16;96552.19;;;1.91;80.70
6096;BME280;25081;42.698;23.298;2023-02-15T04:39:44;96555.58;;;1.88;80.85
6096;BME280;25081;42.698;23.298;2023-02-15T04:42:13;96555.36;;;1.85;80.98
6096;BME280;25081;42.698;23.298;2023-02-15T04:44:42;96548.08;;;2.23;83.62
6096;BME280;25081;42.698;23.298;2023-02-15T04:47:11;96549.23;;;2.15;80.47
6096;BME280;25081;42.698;23.298;2023-02-15T04:49:40;96548.41;;;2.15;80.32
6096;BME280;25081;42.698;23.298;2023-02-15T04:52:08;96556.33;;;2.09;80.35
6096;BME280;25081;42.698;23.298;2023-02-15T04:54:37;96551.88;;;2.00;80.43
6096;BME280;25081;42.698;23.298;2023-02-15T04:57:06;96559.86;;;2.04;80.66
6096;BME280;25081;42.698;23.298;2023-02-15T04:59:35;96560.52;;;1.96;80.60
6096;BME280;25081;42.698;23.298;2023-02-15T05:02:04;96559.59;;;2.07;80.59
6096;BME280;25081;42.698;23.298;2023-02-15T05:04:32;96563.50;;;1.97;80.49
6096;BME280;25081;42.698;23.298;2023-02-15T05:07:01;96568.14;;;1.99;80.68
6096;BME280;25081;42.698;23.298;2023-02-15T05:09:29;96562.73;;;2.01;80.80
6096;BME280;25081;42.698;23.298;2023-02-15T05:11:58;96561.63;;;1.94;80.66
6096;BME280;25081;42.698;23.298;2023-02-15T05:14:27;96570.77;;;1.99;80.67
6096;BME280;25081;42.698;23.298;2023-02-15T05:16:56;96572.91;;;2.00;80.71
6096;BME280;25081;42.698;23.298;2023-02-15T05:19:25;96573.02;;;2.04;80.55
6096;BME280;25081;42.698;23.298;2023-02-15T05:21:54;96577.55;;;2.02;80.62
6096;BME280;25081;42.698;23.298;2023-02-15T05:24:22;96582.64;;;2.09;80.29
6096;BME280;25081;42.698;23.298;2023-02-15T05:27:11;96581.28;;;2.15;80.14
6096;BME280;25081;42.698;23.298;2023-02-15T05:29:57;96582.25;;;2.14;80.08
6096;BME280;25081;42.698;23.298;2023-02-15T05:32:27;96583.33;;;2.11;79.78
6096;BME280;25081;42.698;23.298;2023-02-15T05:34:55;96586.86;;;2.06;80.17
6096;BME280;25081;42.698;23.298;2023-02-15T05:37:24;96590.39;;;2.11;80.20
6096;BME280;25081;42.698;23.298;2023-02-15T05:39:53;96592.63;;;2.15;80.03
6096;BME280;25081;42.698;23.298;2023-02-15T05:42:21;96600.77;;;2.12;79.97
6096;BME280;25081;42.698;23.298;2023-02-15T05:44:50;96601.19;;;2.08;80.16
6096;BME280;25081;42.698;23.298;2023-02-15T05:47:20;96601.08;;;2.19;80.30
6096;BME280;25081;42.698;23.298;2023-02-15T05:49:51;96602.61;;;2.21;79.81
6096;BME280;25081;42.698;23.298;2023-02-15T05:52:19;96600.52;;;2.15;80.08
6096;BME280;25081;42.698;23.298;2023-02-15T05:54:48;96599.00;;;2.13;79.93
6096;BME280;25081;42.698;23.298;2023-02-15T05:57:18;96598.94;;;2.18;79.93
6096;BME280;25081;42.698;23.298;2023-02-15T05:59:46;96602.42;;;2.28;79.67
6096;BME280;25081;42.698;23.298;2023-02-15T06:02:15;96603.39;;;2.27;79.45
6096;BME280;25081;42.698;23.298;2023-02-15T06:04:44;96605.33;;;2.25;79.43
6096;BME280;25081;42.698;23.298;2023-02-15T06:07:13;96607.86;;;2.37;79.12
6096;BME280;25081;42.698;23.298;2023-02-15T06:09:42;96611.77;;;2.42;78.80
6096;BME280;25081;42.698;23.298;2023-02-15T06:12:10;96607.52;;;2.36;78.70
6096;BME280;25081;42.698;23.298;2023-02-15T06:14:39;96605.02;;;2.34;78.81
6096;BME280;25081;42.698;23.298;2023-02-15T06:17:07;96605.19;;;2.42;78.80
6096;BME280;25081;42.698;23.298;2023-02-15T06:19:36;96607.44;;;2.41;78.53
6096;BME280;25081;42.698;23.298;2023-02-15T06:22:05;96605.08;;;2.38;78.69
6096;BME280;25081;42.698;23.298;2023-02-15T06:24:34;96616.30;;;2.40;78.65
6096;BME280;25081;42.698;23.298;2023-02-15T06:27:03;96616.61;;;2.47;78.45
6096;BME280;25081;42.698;23.298;2023-02-15T06:29:31;96612.88;;;2.59;78.01
6096;BME280;25081;42.698;23.298;2023-02-15T06:32:00;96614.20;;;2.59;77.70
6096;BME280;25081;42.698;23.298;2023-02-15T06:34:29;96608.25;;;2.57;77.86
6096;BME280;25081;42.698;23.298;2023-02-15T06:36:57;96606.77;;;2.74;77.59
6096;BME280;25081;42.698;23.298;2023-02-15T06:39:26;96610.76;;;2.68;77.19
6096;BME280;25081;42.698;23.298;2023-02-15T06:41:54;96606.46;;;2.67;77.12
6096;BME280;25081;42.698;23.298;2023-02-15T06:44:23;96574.84;;;2.48;77.16
6096;BME280;25081;42.698;23.298;2023-02-15T06:46:52;96609.69;;;2.80;76.61
6096;BME280;25081;42.698;23.298;2023-02-15T06:49:21;96609.55;;;2.82;76.41
6096;BME280;25081;42.698;23.298;2023-02-15T06:51:49;96609.81;;;2.98;76.14
6096;BME280;25081;42.698;23.298;2023-02-15T06:54:19;96601.72;;;3.05;75.75
6096;BME280;25081;42.698;23.298;2023-02-15T06:56:47;96601.09;;;3.07;75.42
6096;BME280;25081;42.698;23.298;2023-02-15T06:59:16;96608.16;;;3.07;75.42
6096;BME280;25081;42.698;23.298;2023-02-15T07:01:44;96610.10;;;3.14;75.19
6096;BME280;25081;42.698;23.298;2023-02-15T07:04:13;96600.97;;;3.19;74.55
6096;BME280;25081;42.698;23.298;2023-02-15T07:06:42;96600.53;;;3.23;74.41
6096;BME280;25081;42.698;23.298;2023-02-15T07:09:11;96612.59;;;3.16;74.49
6096;BME280;25081;42.698;23.298;2023-02-15T07:11:40;96614.12;;;3.38;74.15
6096;BME280;25081;42.698;23.298;2023-02-15T07:14:27;96603.64;;;3.42;73.58
6096;BME280;25081;42.698;23.298;2023-02-15T07:16:55;96607.23;;;3.51;73.34
6096;BME280;25081;42.698;23.298;2023-02-15T07:19:24;96605.07;;;3.60;72.75
6096;BME280;25081;42.698;23.298;2023-02-15T07:21:53;96612.20;;;3.63;72.27
6096;BME280;25081;42.698;23.298;2023-02-15T07:24:22;96618.06;;;3.57;72.74
6096;BME280;25081;42.698;23.298;2023-02-15T07:26:51;96616.94;;;3.83;72.02
6096;BME280;25081;42.698;23.298;2023-02-15T07:29:19;96618.59;;;3.84;71.69
6096;BME280;25081;42.698;23.298;2023-02-15T07:31:48;96620.08;;;4.06;70.73
6096;BME280;25081;42.698;23.298;2023-02-15T07:34:17;96617.20;;;3.90;70.84
6096;BME280;25081;42.698;23.298;2023-02-15T07:36:46;96615.67;;;4.11;70.47
6096;BME280;25081;42.698;23.298;2023-02-15T07:39:15;96605.76;;;4.09;70.09
6096;BME280;25081;42.698;23.298;2023-02-15T07:41:45;96607.42;;;4.10;69.79
6096;BME280;25081;42.698;23.298;2023-02-15T07:44:14;96600.70;;;3.88;70.32
6096;BME280;25081;42.698;23.298;2023-02-15T07:46:42;96606.33;;;4.02;70.05
6096;BME280;25081;42.698;23.298;2023-02-15T07:49:11;96603.98;;;3.99;70.24
6096;BME280;25081;42.698;23.298;2023-02-15T07:51:40;96604.33;;;4.14;69.62
6096;BME280;25081;42.698;23.298;2023-02-15T07:54:08;96602.25;;;3.94;70.22
6096;BME280;25081;42.698;23.298;2023-02-15T07:56:37;96599.95;;;4.19;69.74
6096;BME280;25081;42.698;23.298;2023-02-15T07:59:06;96599.79;;;4.34;69.08
6096;BME280;25081;42.698;23.298;2023-02-15T08:01:35;96594.17;;;4.33;69.10
6096;BME280;25081;42.698;23.298;2023-02-15T08:04:04;96596.33;;;4.34;68.98
6096;BME280;25081;42.698;23.298;2023-02-15T08:06:33;96594.56;;;4.52;68.93
6096;BME280;25081;42.698;23.298;2023-02-15T08:09:02;96588.08;;;4.46;68.52
6096;BME280;25081;42.698;23.298;2023-02-15T08:11:30;96592.38;;;4.79;68.05
6096;BME280;25081;42.698;23.298;2023-02-15T08:14:01;96594.16;;;4.60;67.83
6096;BME280;25081;42.698;23.298;2023-02-15T08:16:30;96599.55;;;4.41;68.04
6096;BME280;25081;42.698;23.298;2023-02-15T08:18:59;96603.67;;;4.40;68.00
6096;BME280;25081;42.698;23.298;2023-02-15T08:21:27;96604.41;;;4.46;68.26
6096;BME280;25081;42.698;23.298;2023-02-15T08:23:56;96600.06;;;4.54;67.44
6096;BME280;25081;42.698;23.298;2023-02-15T08:26:25;96599.45;;;4.60;67.53
6096;BME280;25081;42.698;23.298;2023-02-15T08:28:53;96595.36;;;4.48;67.43
6096;BME280;25081;42.698;23.298;2023-02-15T08:31:21;96602.33;;;4.67;67.14
6096;BME280;25081;42.698;23.298;2023-02-15T08:33:50;96608.93;;;4.53;67.57
6096;BME280;25081;42.698;23.298;2023-02-15T08:36:20;96606.33;;;4.71;67.40
6096;BME280;25081;42.698;23.298;2023-02-15T08:38:47;96601.75;;;4.73;66.81
6096;BME280;25081;42.698;23.298;2023-02-15T08:41:17;96603.53;;;4.55;66.75
6096;BME280;25081;42.698;23.298;2023-02-15T08:43:47;96594.26;;;4.69;66.21
6096;BME280;25081;42.698;23.298;2023-02-15T08:46:15;96602.72;;;5.04;65.55
6096;BME280;25081;42.698;23.298;2023-02-15T08:48:43;96607.61;;;5.16;65.33
6096;BME280;25081;42.698;23.298;2023-02-15T08:51:13;96616.30;;;5.27;64.49
6096;BME280;25081;42.698;23.298;2023-02-15T08:53:41;96603.56;;;5.08;64.93
6096;BME280;25081;42.698;23.298;2023-02-15T08:56:10;96610.16;;;5.22;64.13
6096;BME280;25081;42.698;23.298;2023-02-15T08:58:38;96607.97;;;5.39;63.54
6096;BME280;25081;42.698;23.298;2023-02-15T09:01:11;96609.18;;;5.45;63.39
6096;BME280;25081;42.698;23.298;2023-02-15T09:03:39;96607.44;;;5.14;64.18
6096;BME280;25081;42.698;23.298;2023-02-15T09:06:08;96601.55;;;5.02;64.14
6096;BME280;25081;42.698;23.298;2023-02-15T09:08:36;96605.48;;;5.20;63.75
6096;BME280;25081;42.698;23.298;2023-02-15T09:11:10;96614.22;;;5.56;62.96
6096;BME280;25081;42.698;23.298;2023-02-15T09:13:38;96607.36;;;5.67;62.03
6096;BME280;25081;42.698;23.298;2023-02-15T09:16:08;96603.35;;;6.41;60.48
6096;BME280;25081;42.698;23.298;2023-02-15T09:18:37;96609.17;;;6.11;60.24
6096;BME280;25081;42.698;23.298;2023-02-15T09:21:09;96597.37;;;6.01;60.65
6096;BME280;25081;42.698;23.298;2023-02-15T09:23:38;96605.67;;;5.88;60.31
6096;BME280;25081;42.698;23.298;2023-02-15T09:26:08;96604.27;;;5.72;60.90
6096;BME280;25081;42.698;23.298;2023-02-15T09:28:36;96601.67;;;5.80;60.86
6096;BME280;25081;42.698;23.298;2023-02-15T09:31:10;96602.82;;;5.99;60.81
6096;BME280;25081;42.698;23.298;2023-02-15T09:33:38;96609.81;;;6.43;59.79
6096;BME280;25081;42.698;23.298;2023-02-15T09:36:15;96602.10;;;6.19;59.75
6096;BME280;25081;42.698;23.298;2023-02-15T09:38:43;96604.22;;;6.54;59.06
6096;BME280;25081;42.698;23.298;2023-02-15T09:41:28;96597.02;;;6.76;59.03
6096;BME280;25081;42.698;23.298;2023-02-15T09:43:58;96592.26;;;7.00;57.36
6096;BME280;25081;42.698;23.298;2023-02-15T09:46:44;96597.38;;;6.85;57.87
6096;BME280;25081;42.698;23.298;2023-02-15T09:49:14;96601.77;;;6.65;58.16
6096;BME280;25081;42.698;23.298;2023-02-15T09:51:47;96605.83;;;6.43;58.76
6096;BME280;25081;42.698;23.298;2023-02-15T09:54:23;96602.19;;;6.44;58.93
6096;BME280;25081;42.698;23.298;2023-02-15T09:56:53;96587.94;;;6.87;57.55
6096;BME280;25081;42.698;23.298;2023-02-15T09:59:24;96594.68;;;6.69;58.36
6096;BME280;25081;42.698;23.298;2023-02-15T10:01:54;96590.89;;;6.34;59.23
6096;BME280;25081;42.698;23.298;2023-02-15T10:04:31;96575.05;;;7.65;56.87
6096;BME280;25081;42.698;23.298;2023-02-15T10:07:02;96578.81;;;7.95;54.52
6096;BME280;25081;42.698;23.298;2023-02-15T10:09:34;96583.84;;;7.50;55.55
6096;BME280;25081;42.698;23.298;2023-02-15T10:12:10;96582.35;;;7.47;55.31
6096;BME280;25081;42.698;23.298;2023-02-15T10:14:59;96587.70;;;8.19;53.95
6096;BME280;25081;42.698;23.298;2023-02-15T10:17:33;96576.95;;;8.12;52.66
6096;BME280;25081;42.698;23.298;2023-02-15T10:20:07;96578.13;;;8.57;51.76
6096;BME280;25081;42.698;23.298;2023-02-15T10:22:37;96572.60;;;8.67;50.64
6096;BME280;25081;42.698;23.298;2023-02-15T10:25:30;96572.27;;;8.18;52.08
6096;BME280;25081;42.698;23.298;2023-02-15T10:27:58;96569.89;;;7.68;53.78
6096;BME280;25081;42.698;23.298;2023-02-15T10:30:29;96563.76;;;8.74;50.98
6096;BME280;25081;42.698;23.298;2023-02-15T10:32:59;96562.72;;;9.71;49.23
6096;BME280;25081;42.698;23.298;2023-02-15T10:35:30;96565.09;;;8.74;50.63
6096;BME280;25081;42.698;23.298;2023-02-15T10:38:08;96563.36;;;8.54;51.79
6096;BME280;25081;42.698;23.298;2023-02-15T10:40:41;96557.19;;;8.58;52.14
6096;BME280;25081;42.698;23.298;2023-02-15T10:43:19;96548.30;;;9.28;50.60
6096;BME280;25081;42.698;23.298;2023-02-15T10:45:49;96558.92;;;9.84;48.72
6096;BME280;25081;42.698;23.298;2023-02-15T10:48:35;96549.90;;;9.33;49.35
6096;BME280;25081;42.698;23.298;2023-02-15T10:51:04;96550.69;;;8.65;51.06
6096;BME280;25081;42.698;23.298;2023-02-15T10:54:00;96546.89;;;8.90;50.15
6096;BME280;25081;42.698;23.298;2023-02-15T10:56:29;96541.47;;;9.67;50.83
6096;BME280;25081;42.698;23.298;2023-02-15T10:59:03;96534.34;;;10.67;46.25
6096;BME280;25081;42.698;23.298;2023-02-15T11:01:32;96534.58;;;10.61;46.35
6096;BME280;25081;42.698;23.298;2023-02-15T11:04:29;96534.55;;;10.25;47.29
6096;BME280;25081;42.698;23.298;2023-02-15T11:06:56;96537.45;;;9.86;48.02
6096;BME280;25081;42.698;23.298;2023-02-15T11:09:24;96525.08;;;10.63;45.70
6096;BME280;25081;42.698;23.298;2023-02-15T11:11:53;96536.95;;;10.16;46.75
6096;BME280;25081;42.698;23.298;2023-02-15T11:14:23;96538.59;;;10.02;47.18
6096;BME280;25081;42.698;23.298;2023-02-15T11:16:53;96544.21;;;9.73;48.08
6096;BME280;25081;42.698;23.298;2023-02-15T11:19:21;96541.59;;;9.32;48.86
6096;BME280;25081;42.698;23.298;2023-02-15T11:21:51;96546.45;;;8.47;50.73
6096;BME280;25081;42.698;23.298;2023-02-15T11:24:19;96538.22;;;8.69;50.45
6096;BME280;25081;42.698;23.298;2023-02-15T11:26:49;96542.05;;;8.23;51.58
6096;BME280;25081;42.698;23.298;2023-02-15T11:29:20;96535.58;;;8.18;52.24
6096;BME280;25081;42.698;23.298;2023-02-15T11:31:47;96539.48;;;8.50;51.53
6096;BME280;25081;42.698;23.298;2023-02-15T11:34:17;96525.19;;;9.24;49.66
6096;BME280;25081;42.698;23.298;2023-02-15T11:36:45;96528.55;;;9.41;48.77
6096;BME280;25081;42.698;23.298;2023-02-15T11:39:14;96531.77;;;8.86;50.07
6096;BME280;25081;42.698;23.298;2023-02-15T11:41:43;96545.45;;;7.97;52.50
6096;BME280;25081;42.698;23.298;2023-02-15T11:44:13;96536.05;;;7.70;52.65
6096;BME280;25081;42.698;23.298;2023-02-15T11:46:41;96541.23;;;7.18;54.10
6096;BME280;25081;42.698;23.298;2023-02-15T11:49:17;96527.26;;;7.69;54.04
6096;BME280;25081;42.698;23.298;2023-02-15T11:51:42;96531.09;;;6.94;55.17
6096;BME280;25081;42.698;23.298;2023-02-15T11:54:11;96529.92;;;6.68;56.46
6096;BME280;25081;42.698;23.298;2023-02-15T11:56:40;96526.40;;;6.55;56.73
6096;BME280;25081;42.698;23.298;2023-02-15T11:59:11;96514.37;;;6.93;56.38
6096;BME280;25081;42.698;23.298;2023-02-15T12:01:40;96511.23;;;6.85;56.34
6096;BME280;25081;42.698;23.298;2023-02-15T12:04:10;96510.58;;;7.08;56.06
6096;BME280;25081;42.698;23.298;2023-02-15T12:06:38;96496.32;;;6.88;56.22
6096;BME280;25081;42.698;23.298;2023-02-15T12:09:10;96503.80;;;6.26;57.40
6096;BME280;25081;42.698;23.298;2023-02-15T12:11:37;96501.02;;;6.32;57.99
6096;BME280;25081;42.698;23.298;2023-02-15T12:14:06;96501.68;;;6.34;58.11
6096;BME280;25081;42.698;23.298;2023-02-15T12:16:41;96500.90;;;6.54;57.37
6096;BME280;25081;42.698;23.298;2023-02-15T12:19:03;96502.08;;;6.64;57.02
6096;BME280;25081;42.698;23.298;2023-02-15T12:21:39;96489.02;;;6.82;56.48
6096;BME280;25081;42.698;23.298;2023-02-15T12:24:14;96489.52;;;6.82;56.42
6096;BME280;25081;42.698;23.298;2023-02-15T12:26:39;96486.20;;;6.72;56.36
6096;BME280;25081;42.698;23.298;2023-02-15T12:29:15;96480.88;;;6.64;56.33
6096;BME280;25081;42.698;23.298;2023-02-15T12:31:47;96490.45;;;6.40;57.40
6096;BME280;25081;42.698;23.298;2023-02-15T12:34:19;96482.06;;;6.69;56.72
6096;BME280;25081;42.698;23.298;2023-02-15T12:36:47;96485.72;;;6.88;56.17
6096;BME280;25081;42.698;23.298;2023-02-15T12:39:20;96469.95;;;6.63;56.66
6096;BME280;25081;42.698;23.298;2023-02-15T12:42:02;96469.61;;;6.66;56.91
6096;BME280;25081;42.698;23.298;2023-02-15T12:44:31;96461.48;;;6.55;56.62
6096;BME280;25081;42.698;23.298;2023-02-15T12:47:04;96458.03;;;6.63;56.68
6096;BME280;25081;42.698;23.298;2023-02-15T12:49:32;96462.83;;;6.75;56.46
6096;BME280;25081;42.698;23.298;2023-02-15T12:52:01;96444.63;;;6.72;56.57
6096;BME280;25081;42.698;23.298;2023-02-15T12:54:37;96451.09;;;6.90;56.45
6096;BME280;25081;42.698;23.298;2023-02-15T12:57:28;96453.39;;;6.93;55.95
6096;BME280;25081;42.698;23.298;2023-02-15T12:59:57;96447.59;;;6.94;55.85
6096;BME280;25081;42.698;23.298;2023-02-15T13:02:30;96436.33;;;6.75;55.98
6096;BME280;25081;42.698;23.298;2023-02-15T13:05:03;96449.77;;;6.78;55.98
6096;BME280;25081;42.698;23.298;2023-02-15T13:07:30;96443.30;;;6.72;56.12
6096;BME280;25081;42.698;23.298;2023-02-15T13:09:59;96441.98;;;6.80;55.96
6096;BME280;25081;42.698;23.298;2023-02-15T13:12:28;96439.81;;;6.84;55.87
6096;BME280;25081;42.698;23.298;2023-02-15T13:14:57;96443.98;;;6.86;56.14
6096;BME280;25081;42.698;23.298;2023-02-15T13:17:26;96441.65;;;6.79;56.15
6096;BME280;25081;42.698;23.298;2023-02-15T13:19:54;96436.02;;;6.58;56.68
6096;BME280;25081;42.698;23.298;2023-02-15T13:22:25;96434.00;;;6.44;57.00
6096;BME280;25081;42.698;23.298;2023-02-15T13:24:54;96436.83;;;6.63;58.82
6096;BME280;25081;42.698;23.298;2023-02-15T13:27:24;96438.66;;;6.74;57.35
6096;BME280;25081;42.698;23.298;2023-02-15T13:29:52;96437.98;;;6.52;57.50